createdAt,value
2023-01-29T00:01:51.476Z,0.40
2023-01-29T00:04:18.377Z,0.50
2023-01-29T00:06:45.219Z,0.40
2023-01-29T00:09:12.905Z,0.40
2023-01-29T00:11:39.997Z,0.40
2023-01-29T00:14:06.948Z,0.40
2023-01-29T00:16:33.785Z,0.40
2023-01-29T00:19:02.229Z,0.40
2023-01-29T00:21:31.010Z,1.90
2023-01-29T00:23:58.640Z,0.40
2023-01-29T00:26:25.857Z,1.20
2023-01-29T00:28:52.763Z,0.50
2023-01-29T00:31:23.083Z,0.40
2023-01-29T00:33:50.121Z,0.50
2023-01-29T00:36:18.111Z,0.40
2023-01-29T00:38:46.418Z,0.50
2023-01-29T00:41:33.514Z,0.40
2023-01-29T00:44:19.427Z,0.30
2023-01-29T00:46:46.576Z,2.60
2023-01-29T00:49:13.545Z,0.40
2023-01-29T00:51:40.357Z,1.90
2023-01-29T00:54:07.381Z,0.50
2023-01-29T00:56:37.355Z,0.50
2023-01-29T00:59:04.539Z,0.50
2023-01-29T01:01:50.040Z,0.40
2023-01-29T01:04:16.875Z,0.30
2023-01-29T01:06:43.895Z,0.50
2023-01-29T01:09:29.751Z,0.50
2023-01-29T01:11:56.556Z,0.20
2023-01-29T01:14:23.368Z,1.50
2023-01-29T01:16:50.277Z,0.40
2023-01-29T01:19:17.150Z,0.50
2023-01-29T01:21:45.558Z,0.50
2023-01-29T01:24:13.101Z,0.40
2023-01-29T01:26:39.982Z,0.50
2023-01-29T01:29:06.924Z,0.40
2023-01-29T01:31:33.763Z,0.50
2023-01-29T01:34:01.162Z,0.40
2023-01-29T01:36:28.650Z,0.40
2023-01-29T01:38:55.549Z,0.40
2023-01-29T01:41:23.293Z,0.30
2023-01-29T01:44:00.175Z,0.30
2023-01-29T01:46:36.031Z,0.30
2023-01-29T01:49:09.016Z,0.30
2023-01-29T01:51:38.119Z,0.30
2023-01-29T01:54:20.965Z,3.00
2023-01-29T01:56:52.575Z,0.40
2023-01-29T01:59:19.420Z,0.30
2023-01-29T02:01:50.165Z,0.20
2023-01-29T02:04:37.417Z,0.10
2023-01-29T02:07:23.623Z,0.40
2023-01-29T02:10:14.192Z,0.30
2023-01-29T02:12:41.235Z,0.20
2023-01-29T02:15:08.493Z,0.30
2023-01-29T02:17:35.384Z,0.30
2023-01-29T02:20:20.938Z,0.20
2023-01-29T02:23:08.763Z,0.30
2023-01-29T02:25:41.837Z,0.30
2023-01-29T02:28:21.666Z,2.70
2023-01-29T02:31:09.542Z,0.30
2023-01-29T02:33:53.667Z,3.10
2023-01-29T02:36:32.083Z,0.30
2023-01-29T02:39:11.603Z,0.30
2023-01-29T02:41:44.494Z,0.30
2023-01-29T02:44:23.038Z,0.30
2023-01-29T02:47:17.271Z,0.30
2023-01-29T02:49:52.713Z,0.20
2023-01-29T02:52:31.167Z,0.20
2023-01-29T02:55:03.091Z,0.20
2023-01-29T02:57:32.790Z,0.20
2023-01-29T03:00:04.779Z,3.40
2023-01-29T03:02:36.065Z,0.20
2023-01-29T03:05:04.139Z,0.20
2023-01-29T03:07:44.772Z,0.20
2023-01-29T03:10:26.853Z,0.20
2023-01-29T03:13:06.499Z,0.20
2023-01-29T03:15:39.184Z,0.20
2023-01-29T03:18:41.229Z,0.20
2023-01-29T03:21:30.410Z,0.00
2023-01-29T03:24:16.759Z,0.20
2023-01-29T03:27:02.071Z,-0.10
2023-01-29T03:29:52.589Z,0.20
2023-01-29T03:32:20.422Z,0.10
2023-01-29T03:34:51.755Z,0.20
2023-01-29T03:37:40.472Z,0.00
2023-01-29T03:40:07.715Z,0.10
2023-01-29T03:42:52.700Z,0.20
2023-01-29T03:45:43.421Z,0.10
2023-01-29T03:48:16.477Z,0.10
2023-01-29T03:50:54.785Z,0.10
2023-01-29T03:53:29.694Z,0.10
2023-01-29T03:56:05.282Z,0.10
2023-01-29T03:59:12.451Z,0.10
2023-01-29T04:02:04.274Z,0.10
2023-01-29T04:04:36.904Z,3.70
2023-01-29T04:07:23.786Z,0.10
2023-01-29T04:10:07.268Z,0.10
2023-01-29T04:12:45.267Z,2.20
2023-01-29T04:15:17.406Z,0.10
2023-01-29T04:17:49.739Z,0.10
2023-01-29T04:20:23.671Z,1.40
2023-01-29T04:22:51.447Z,0.00
2023-01-29T04:25:26.632Z,0.10
2023-01-29T04:28:06.919Z,0.00
2023-01-29T04:34:58.937Z,0.00
2023-01-29T04:37:40.352Z,0.00
2023-01-29T04:40:16.112Z,0.00
2023-01-29T04:42:49.082Z,0.00
2023-01-29T04:45:25.689Z,-0.10
2023-01-29T04:48:22.736Z,0.00
2023-01-29T04:50:58.512Z,0.00
2023-01-29T04:53:38.827Z,0.00
2023-01-29T04:56:26.670Z,0.00
2023-01-29T04:58:57.188Z,0.00
2023-01-29T05:01:25.765Z,0.00
2023-01-29T05:03:52.875Z,0.00
2023-01-29T05:06:19.661Z,-0.10
2023-01-29T05:08:46.430Z,-0.10
2023-01-29T05:11:14.382Z,-0.10
2023-01-29T05:13:41.470Z,0.00
2023-01-29T05:16:09.298Z,-0.10
2023-01-29T05:18:36.121Z,-0.10
2023-01-29T05:21:04.851Z,-0.20
2023-01-29T05:23:31.716Z,-0.10
2023-01-29T05:25:58.526Z,-0.10
2023-01-29T05:28:25.408Z,-0.20
2023-01-29T05:30:56.532Z,-0.20
2023-01-29T05:33:28.194Z,-0.20
2023-01-29T05:35:55.442Z,-0.20
2023-01-29T05:38:22.950Z,-0.60
2023-01-29T05:40:49.727Z,-0.30
2023-01-29T05:43:23.655Z,-0.20
2023-01-29T05:45:58.144Z,-0.20
2023-01-29T05:48:25.498Z,-0.30
2023-01-29T05:50:52.257Z,-0.30
2023-01-29T05:53:19.036Z,-0.40
2023-01-29T05:55:46.674Z,-0.30
2023-01-29T05:58:13.728Z,-0.30
2023-01-29T06:00:40.659Z,-0.30
2023-01-29T06:03:07.682Z,-0.30
2023-01-29T06:05:37.250Z,-0.30
2023-01-29T06:08:04.574Z,-0.40
2023-01-29T06:10:31.312Z,-0.40
2023-01-29T06:12:58.123Z,0.80
2023-01-29T06:15:26.454Z,-0.50
2023-01-29T06:17:56.767Z,-0.50
2023-01-29T06:20:24.257Z,-0.50
2023-01-29T06:22:51.018Z,-0.50
2023-01-29T06:25:17.798Z,-0.50
2023-01-29T06:27:44.551Z,-0.50
2023-01-29T06:30:11.925Z,-0.50
2023-01-29T06:32:38.740Z,-0.60
2023-01-29T06:35:06.009Z,-0.70
2023-01-29T06:37:32.787Z,-0.70
2023-01-29T06:39:59.528Z,-0.70
2023-01-29T06:42:28.106Z,-0.80
2023-01-29T06:44:58.000Z,-0.80
2023-01-29T06:51:48.534Z,-0.90
2023-01-29T06:54:15.521Z,-1.00
2023-01-29T06:56:42.272Z,-1.10
2023-01-29T06:59:09.024Z,-1.10
2023-01-29T07:01:40.986Z,-1.10
2023-01-29T07:04:07.851Z,-1.10
2023-01-29T07:06:34.971Z,-1.20
2023-01-29T07:09:02.276Z,-1.30
2023-01-29T07:11:29.247Z,-1.30
2023-01-29T07:13:56.005Z,1.20
2023-01-29T07:16:23.443Z,-1.30
2023-01-29T07:18:50.287Z,-1.40
2023-01-29T07:21:17.102Z,-1.40
2023-01-29T07:23:43.880Z,-1.30
2023-01-29T07:26:10.706Z,-1.40
2023-01-29T07:29:37.357Z,-1.30
2023-01-29T07:32:04.277Z,-1.30
2023-01-29T07:34:31.182Z,-1.20
2023-01-29T07:36:57.923Z,-1.30
2023-01-29T07:39:24.780Z,-1.10
2023-01-29T07:41:51.497Z,-1.20
2023-01-29T07:44:18.236Z,-1.20
2023-01-29T07:46:45.005Z,-1.00
2023-01-29T07:49:11.810Z,-1.10
2023-01-29T07:51:38.542Z,-0.90
2023-01-29T07:54:05.366Z,-0.90
2023-01-29T07:56:32.100Z,-0.80
2023-01-29T07:58:58.942Z,-0.90
2023-01-29T08:01:25.690Z,-0.70
2023-01-29T08:03:52.928Z,1.60
2023-01-29T08:06:19.681Z,-0.70
2023-01-29T08:08:46.441Z,-0.60
2023-01-29T08:11:13.224Z,-0.60
2023-01-29T08:13:40.017Z,-0.60
2023-01-29T08:16:07.335Z,1.00
2023-01-29T08:18:34.213Z,-0.50
2023-01-29T08:21:01.447Z,-0.50
2023-01-29T08:23:28.272Z,-0.50
2023-01-29T08:25:55.115Z,-0.50
2023-01-29T08:28:21.871Z,-0.50
2023-01-29T08:30:48.615Z,-1.00
2023-01-29T08:33:17.552Z,-0.40
2023-01-29T08:35:48.432Z,-0.40
2023-01-29T08:38:15.170Z,-0.20
2023-01-29T08:40:41.914Z,-0.20
2023-01-29T08:43:09.613Z,-0.10
2023-01-29T08:45:38.337Z,0.00
2023-01-29T08:48:05.405Z,0.00
2023-01-29T08:50:33.012Z,0.10
2023-01-29T08:53:00.396Z,0.10
2023-01-29T08:55:27.490Z,0.30
2023-01-29T08:57:54.466Z,0.40
2023-01-29T09:00:21.608Z,0.30
2023-01-29T09:02:48.430Z,0.50
2023-01-29T09:05:15.531Z,0.50
2023-01-29T09:07:42.452Z,0.70
2023-01-29T09:10:09.942Z,0.80
2023-01-29T09:12:36.772Z,0.80
2023-01-29T09:15:04.827Z,0.90
2023-01-29T09:17:31.576Z,0.90
2023-01-29T09:19:58.777Z,0.90
2023-01-29T09:22:25.613Z,1.00
2023-01-29T09:24:52.380Z,1.00
2023-01-29T09:27:19.212Z,1.10
2023-01-29T09:29:46.012Z,1.10
2023-01-29T09:32:13.002Z,0.80
2023-01-29T09:34:40.172Z,1.00
2023-01-29T09:41:43.780Z,1.20
2023-01-29T09:44:23.677Z,1.30
2023-01-29T09:46:51.440Z,1.30
2023-01-29T09:49:52.201Z,1.40
2023-01-29T09:52:40.529Z,1.40
2023-01-29T09:55:15.274Z,1.40
2023-01-29T09:57:58.010Z,1.40
2023-01-29T10:00:33.372Z,1.40
2023-01-29T10:03:22.909Z,1.40
2023-01-29T10:06:11.617Z,1.40
2023-01-29T10:09:19.323Z,1.40
2023-01-29T10:12:07.316Z,1.40
2023-01-29T10:14:40.508Z,1.50
2023-01-29T10:17:54.737Z,1.50
2023-01-29T10:20:24.283Z,1.50
2023-01-29T10:22:54.714Z,1.50
2023-01-29T10:25:21.845Z,1.50
2023-01-29T10:27:58.838Z,1.60
2023-01-29T10:30:40.368Z,1.70
2023-01-29T10:33:13.473Z,1.80
2023-01-29T10:35:46.650Z,1.80
2023-01-29T10:38:19.791Z,2.10
2023-01-29T10:40:57.284Z,2.10
2023-01-29T10:43:38.125Z,2.20
2023-01-29T10:46:36.706Z,2.30
2023-01-29T10:49:42.169Z,2.30
2023-01-29T10:52:17.148Z,2.40
2023-01-29T10:54:55.904Z,2.40
2023-01-29T10:57:58.230Z,2.40
2023-01-29T11:00:27.529Z,2.40
2023-01-29T11:02:54.439Z,2.30
2023-01-29T11:05:32.065Z,2.40
2023-01-29T11:08:05.405Z,2.40
2023-01-29T11:10:32.866Z,2.40
2023-01-29T11:12:59.663Z,5.60
2023-01-29T11:15:31.831Z,2.40
2023-01-29T11:18:17.120Z,2.50
2023-01-29T11:20:44.710Z,2.50
2023-01-29T11:23:27.339Z,2.50
2023-01-29T11:25:54.508Z,2.60
2023-01-29T11:28:47.040Z,2.60
2023-01-29T11:31:22.938Z,2.70
2023-01-29T11:33:51.483Z,4.40
2023-01-29T11:36:40.218Z,2.80
2023-01-29T11:39:19.953Z,2.90
2023-01-29T11:41:55.831Z,2.90
2023-01-29T11:44:28.213Z,3.00
2023-01-29T11:46:56.061Z,3.00
2023-01-29T11:49:33.478Z,3.10
2023-01-29T11:52:05.164Z,3.10
2023-01-29T11:54:35.276Z,3.10
2023-01-29T11:57:02.228Z,3.10
2023-01-29T11:59:44.339Z,3.10
2023-01-29T12:02:16.626Z,3.10
2023-01-29T12:04:43.398Z,3.10
2023-01-29T12:07:17.354Z,3.10
2023-01-29T12:09:55.785Z,3.20
2023-01-29T12:12:34.505Z,3.00
2023-01-29T12:15:16.502Z,3.10
2023-01-29T12:17:46.118Z,3.10
2023-01-29T12:20:23.136Z,3.00
2023-01-29T12:23:21.889Z,3.00
2023-01-29T12:26:07.387Z,3.10
2023-01-29T12:29:11.735Z,3.10
2023-01-29T12:32:06.607Z,5.10
2023-01-29T12:34:45.162Z,3.10
2023-01-29T12:37:19.081Z,3.10
2023-01-29T12:39:45.864Z,3.10
2023-01-29T12:42:23.064Z,3.00
2023-01-29T12:45:01.036Z,3.10
2023-01-29T12:47:38.731Z,3.00
2023-01-29T12:50:19.589Z,3.00
2023-01-29T12:53:00.786Z,2.80
2023-01-29T12:55:45.325Z,2.90
2023-01-29T12:58:17.900Z,2.80
2023-01-29T13:00:45.922Z,2.90
2023-01-29T13:03:52.338Z,2.90
2023-01-29T13:06:22.669Z,2.90
2023-01-29T13:09:20.140Z,2.70
2023-01-29T13:12:07.377Z,2.90
2023-01-29T13:14:56.355Z,2.90
2023-01-29T13:17:53.022Z,2.90
2023-01-29T13:20:25.635Z,3.00
2023-01-29T13:22:53.124Z,3.00
2023-01-29T13:25:20.175Z,3.00
2023-01-29T13:27:47.801Z,3.10
2023-01-29T13:30:28.576Z,3.10
2023-01-29T13:32:55.893Z,3.00
2023-01-29T13:35:22.736Z,3.00
2023-01-29T13:37:51.316Z,2.90
2023-01-29T13:40:29.152Z,2.80
2023-01-29T13:42:57.307Z,2.80
2023-01-29T13:45:42.424Z,2.70
2023-01-29T13:48:31.994Z,2.70
2023-01-29T13:51:02.371Z,2.60
2023-01-29T13:53:40.284Z,2.70
2023-01-29T13:56:35.190Z,2.70
2023-01-29T13:59:03.033Z,2.70
2023-01-29T14:01:48.378Z,2.70
2023-01-29T14:04:26.683Z,2.70
2023-01-29T14:06:56.029Z,2.70
2023-01-29T14:09:38.167Z,5.70
2023-01-29T14:12:33.793Z,2.70
2023-01-29T14:15:24.729Z,2.70
2023-01-29T14:18:35.364Z,2.70
2023-01-29T14:21:14.467Z,2.70
2023-01-29T14:23:46.746Z,2.70
2023-01-29T14:26:34.659Z,2.70
2023-01-29T14:29:04.572Z,2.70
2023-01-29T14:31:52.524Z,2.70
2023-01-29T14:34:41.512Z,2.50
2023-01-29T14:37:27.055Z,2.60
2023-01-29T14:39:56.022Z,2.60
2023-01-29T14:42:36.588Z,2.40
2023-01-29T14:45:32.729Z,2.50
2023-01-29T14:48:00.644Z,2.50
2023-01-29T14:50:33.339Z,2.40
2023-01-29T14:53:23.268Z,2.50
2023-01-29T14:56:21.347Z,2.50
2023-01-29T14:59:10.748Z,2.50
2023-01-29T15:01:38.739Z,2.50
2023-01-29T15:04:25.616Z,2.50
2023-01-29T15:06:55.150Z,2.50
2023-01-29T15:09:36.805Z,2.50
2023-01-29T15:12:20.366Z,2.50
2023-01-29T15:15:15.253Z,3.90
2023-01-29T15:18:08.248Z,2.40
2023-01-29T15:20:39.394Z,2.40
2023-01-29T15:23:27.723Z,2.40
2023-01-29T15:25:56.382Z,4.20
2023-01-29T15:28:23.198Z,2.30
2023-01-29T15:30:56.928Z,2.30
2023-01-29T15:33:23.801Z,2.30
2023-01-29T15:35:53.698Z,2.10
2023-01-29T15:38:26.767Z,2.30
2023-01-29T15:40:57.913Z,3.10
2023-01-29T15:43:28.760Z,2.20
2023-01-29T15:46:06.628Z,2.20
2023-01-29T15:48:36.128Z,2.20
2023-01-29T15:51:05.025Z,2.10
2023-01-29T15:53:50.214Z,2.10
2023-01-29T15:56:18.748Z,2.10
2023-01-29T15:58:48.427Z,2.10
2023-01-29T16:01:15.275Z,3.10
2023-01-29T16:03:42.107Z,2.00
2023-01-29T16:06:09.133Z,2.00
2023-01-29T16:08:35.901Z,2.10
2023-01-29T16:11:04.196Z,2.10
2023-01-29T16:13:36.016Z,2.00
2023-01-29T16:16:05.053Z,2.00
2023-01-29T16:18:40.966Z,2.00
2023-01-29T16:21:14.315Z,1.90
2023-01-29T16:23:43.426Z,1.90
2023-01-29T16:26:15.356Z,1.90
2023-01-29T16:28:42.844Z,1.70
2023-01-29T16:31:10.253Z,1.70
2023-01-29T16:33:39.009Z,1.70
2023-01-29T16:36:21.177Z,1.60
2023-01-29T16:38:50.364Z,1.50
2023-01-29T16:41:23.951Z,1.40
2023-01-29T16:43:54.995Z,1.20
2023-01-29T16:46:37.382Z,1.10
2023-01-29T16:49:27.033Z,1.00
2023-01-29T16:51:54.576Z,0.80
2023-01-29T16:54:24.205Z,0.60
2023-01-29T16:56:53.204Z,0.60
2023-01-29T16:59:35.740Z,0.50
2023-01-29T17:02:02.577Z,0.30
2023-01-29T17:04:29.350Z,0.20
2023-01-29T17:06:57.709Z,0.10
2023-01-29T17:09:29.983Z,0.00
2023-01-29T17:12:02.007Z,-0.10
2023-01-29T17:14:29.884Z,-0.20
2023-01-29T17:17:04.790Z,-0.20
2023-01-29T17:19:31.577Z,-0.30
2023-01-29T17:21:59.062Z,-0.40
2023-01-29T17:24:26.247Z,-0.40
2023-01-29T17:26:53.213Z,-0.50
2023-01-29T17:29:23.557Z,-0.50
2023-01-29T17:31:50.374Z,-0.50
2023-01-29T17:34:17.830Z,-0.50
2023-01-29T17:36:44.941Z,-0.50
2023-01-29T17:39:17.602Z,-0.70
2023-01-29T17:41:49.602Z,-0.60
2023-01-29T17:44:16.484Z,-0.60
2023-01-29T17:46:43.659Z,-0.60
2023-01-29T17:49:19.301Z,-0.60
2023-01-29T17:51:46.130Z,-0.70
2023-01-29T17:54:12.875Z,-0.70
2023-01-29T17:56:39.635Z,-0.80
2023-01-29T17:59:14.158Z,-0.80
2023-01-29T18:01:41.232Z,-0.80
2023-01-29T18:04:09.240Z,-0.80
2023-01-29T18:06:36.163Z,-0.90
2023-01-29T18:09:03.104Z,-0.90
2023-01-29T18:11:30.063Z,-0.90
2023-01-29T18:13:56.841Z,-1.00
2023-01-29T18:16:23.925Z,-1.00
2023-01-29T18:18:51.360Z,-1.00
2023-01-29T18:21:18.356Z,-1.00
2023-01-29T18:23:45.134Z,-1.00
2023-01-29T18:26:15.463Z,-1.10
2023-01-29T18:28:43.712Z,-1.10
2023-01-29T18:31:12.936Z,-1.20
2023-01-29T18:33:40.505Z,-1.30
2023-01-29T18:36:08.118Z,-1.20
2023-01-29T18:38:34.927Z,-1.20
2023-01-29T18:41:11.886Z,-1.20
2023-01-29T18:43:39.725Z,-1.30
2023-01-29T18:46:06.829Z,-1.30
2023-01-29T18:48:34.300Z,-1.30
2023-01-29T18:51:01.136Z,-1.30
2023-01-29T18:53:27.959Z,-1.60
2023-01-29T18:55:59.733Z,-1.50
2023-01-29T18:58:35.573Z,-1.40
2023-01-29T19:01:08.905Z,-1.40
2023-01-29T19:03:36.260Z,-1.40
2023-01-29T19:06:03.705Z,-1.50
2023-01-29T19:08:30.545Z,-1.40
2023-01-29T19:10:57.932Z,-1.40
2023-01-29T19:13:26.358Z,-1.40
2023-01-29T19:15:53.100Z,-0.70
2023-01-29T19:18:20.570Z,-1.50
2023-01-29T19:20:47.523Z,-1.80
2023-01-29T19:23:14.306Z,-1.50
2023-01-29T19:25:41.255Z,-1.60
2023-01-29T19:28:08.955Z,-1.60
2023-01-29T19:30:35.785Z,-1.80
2023-01-29T19:33:02.811Z,-1.70
2023-01-29T19:35:29.688Z,-1.80
2023-01-29T19:37:56.515Z,-1.70
2023-01-29T19:40:24.267Z,-1.80
2023-01-29T19:42:54.716Z,-1.70
2023-01-29T19:45:42.947Z,-1.80
2023-01-29T19:48:13.635Z,-1.80
2023-01-29T19:50:40.388Z,-1.80
2023-01-29T19:53:07.171Z,-1.80
2023-01-29T19:55:33.947Z,-1.80
2023-01-29T19:58:00.742Z,1.40
2023-01-29T20:00:27.543Z,-1.90
2023-01-29T20:02:54.371Z,-1.90
2023-01-29T20:05:21.190Z,1.30
2023-01-29T20:07:49.725Z,-1.90
2023-01-29T20:10:17.557Z,-1.90
2023-01-29T20:12:45.281Z,-1.20
2023-01-29T20:15:15.685Z,-1.90
2023-01-29T20:17:43.587Z,-1.90
2023-01-29T20:20:10.844Z,-2.00
2023-01-29T20:22:37.646Z,-2.00
2023-01-29T20:25:04.649Z,-2.00
2023-01-29T20:27:31.418Z,-2.10
2023-01-29T20:29:58.430Z,-2.10
2023-01-29T20:32:25.218Z,-2.10
2023-01-29T20:34:52.482Z,-2.30
2023-01-29T20:37:19.637Z,-2.00
2023-01-29T20:39:46.703Z,-2.10
2023-01-29T20:42:13.458Z,-2.10
2023-01-29T20:44:40.271Z,-2.10
2023-01-29T20:47:07.036Z,-2.10
2023-01-29T20:49:33.914Z,-2.10
2023-01-29T20:52:00.684Z,-2.20
2023-01-29T20:54:29.981Z,-2.10
2023-01-29T20:56:57.083Z,-2.20
2023-01-29T20:59:23.955Z,-2.20
2023-01-29T21:01:50.780Z,-2.20
2023-01-29T21:04:17.665Z,-2.20
2023-01-29T21:06:44.484Z,-2.20
2023-01-29T21:09:11.250Z,-2.30
2023-01-29T21:11:37.995Z,-2.20
2023-01-29T21:14:04.835Z,-2.30
2023-01-29T21:16:31.623Z,-2.20
2023-01-29T21:18:58.525Z,-2.20
2023-01-29T21:21:26.602Z,-2.20
2023-01-29T21:23:53.538Z,-1.50
2023-01-29T21:26:20.361Z,-2.30
2023-01-29T21:28:47.169Z,-2.30
2023-01-29T21:31:17.669Z,-2.30
2023-01-29T21:33:44.605Z,-2.30
2023-01-29T21:36:11.490Z,-2.30
2023-01-29T21:38:38.732Z,-2.30
2023-01-29T21:41:07.203Z,-2.30
2023-01-29T21:43:34.056Z,-2.60
2023-01-29T21:46:04.843Z,-2.40
2023-01-29T21:48:31.847Z,-2.40
2023-01-29T21:50:58.637Z,-2.70
2023-01-29T21:53:25.477Z,-2.50
2023-01-29T21:55:52.249Z,-2.50
2023-01-29T21:58:20.813Z,-2.50
2023-01-29T22:00:48.799Z,-2.50
2023-01-29T22:03:15.770Z,-2.60
2023-01-29T22:05:42.667Z,-2.50
2023-01-29T22:08:09.895Z,-2.50
2023-01-29T22:10:37.605Z,-2.60
2023-01-29T22:13:04.576Z,-2.60
2023-01-29T22:15:31.491Z,-2.70
2023-01-29T22:17:58.400Z,-1.00
2023-01-29T22:20:30.131Z,-2.60
2023-01-29T22:23:00.630Z,-2.60
2023-01-29T22:25:27.674Z,-2.60
2023-01-29T22:27:54.572Z,-1.20
2023-01-29T22:30:23.254Z,-2.60
2023-01-29T22:32:50.460Z,-2.60
2023-01-29T22:35:17.321Z,-2.80
2023-01-29T22:37:45.054Z,-2.60
2023-01-29T22:40:12.910Z,-2.60
2023-01-29T22:42:39.810Z,-2.60
2023-01-29T22:45:07.999Z,-2.60
2023-01-29T22:47:34.814Z,-2.60
2023-01-29T22:50:01.647Z,-2.70
2023-01-29T22:52:28.410Z,-2.70
2023-01-29T22:54:55.275Z,-2.90
2023-01-29T22:57:22.186Z,-0.50
2023-01-29T22:59:49.005Z,-2.80
2023-01-29T23:02:15.769Z,-2.80
2023-01-29T23:04:42.587Z,-2.80
2023-01-29T23:07:09.446Z,-2.90
2023-01-29T23:09:36.192Z,-2.80
2023-01-29T23:12:03.026Z,-3.00
2023-01-29T23:14:29.803Z,-2.80
2023-01-29T23:16:56.627Z,-2.70
2023-01-29T23:19:23.478Z,-2.80
2023-01-29T23:21:50.281Z,-2.80
2023-01-29T23:24:17.067Z,-2.80
2023-01-29T23:27:02.595Z,-2.80
2023-01-29T23:29:29.409Z,-2.90
2023-01-29T23:31:56.159Z,-2.80
2023-01-29T23:34:22.958Z,-2.90
2023-01-29T23:36:49.731Z,-2.80
2023-01-29T23:39:16.690Z,-2.80
2023-01-29T23:41:43.633Z,-1.70
2023-01-29T23:44:10.412Z,-2.80
2023-01-29T23:46:37.191Z,-3.00
2023-01-29T23:49:04.008Z,-3.10
2023-01-29T23:51:30.836Z,-2.90
2023-01-29T23:53:57.607Z,-2.80
2023-01-29T23:56:24.558Z,-2.80
2023-01-29T23:58:55.212Z,-2.80
